Time;durP1;ratioP1;P1;durP2;ratioP2;P2;SDS_P1;SDS_P2;PMS_P1;PMS_P2;Temp;Humidity;BMP_temperature;BMP_pressure;BME280_temperature;BME280_humidity;BME280_pressure;Samples;Min_cycle;Max_cycle;Signal;HPM_P1;HPM_P2
2021/06/27 00:03:33;;;;;;;4.32;2.88;;;25.40;42.30;;;;;;8265092;28;20034;-48
2021/06/27 00:07:34;;;;;;;4.20;2.80;;;25.40;42.30;;;;;;8264276;28;20034;-47
2021/06/27 00:11:35;;;;;;;3.47;2.97;;;25.40;42.30;;;;;;8265186;28;20614;-48
2021/06/27 00:15:44;;;;;;;5.38;3.17;;;25.40;42.30;;;;;;8265689;28;20046;-48
2021/06/27 00:19:44;;;;;;;4.60;3.50;;;25.40;42.30;;;;;;8236327;28;20062;-49
2021/06/27 00:23:48;;;;;;;4.40;3.55;;;25.40;42.30;;;;;;8256940;28;20038;-51
2021/06/27 00:27:49;;;;;;;4.80;3.40;;;25.30;42.30;;;;;;8264186;28;20034;-49
2021/06/27 00:31:50;;;;;;;3.10;2.75;;;25.40;42.30;;;;;;8263677;28;20030;-49
2021/06/27 00:35:51;;;;;;;3.72;2.92;;;25.40;42.30;;;;;;8268448;28;20038;-47
2021/06/27 00:39:51;;;;;;;3.40;2.72;;;25.40;42.30;;;;;;8263925;28;20487;-47
2021/06/27 00:43:52;;;;;;;3.20;2.60;;;25.30;42.30;;;;;;8263167;28;20043;-47
2021/06/27 00:47:53;;;;;;;;;;;25.30;42.30;;;;;;8264190;28;20038;-48
2021/06/27 00:51:53;;;;;;;3.20;2.80;;;25.30;42.30;;;;;;8267867;28;19909;-47
2021/06/27 00:55:54;;;;;;;4.22;3.22;;;25.30;42.30;;;;;;8263838;28;20046;-50
2021/06/27 00:59:55;;;;;;;4.75;3.15;;;25.30;42.30;;;;;;8263228;28;20038;-47
2021/06/27 01:03:56;;;;;;;3.22;2.92;;;25.30;42.30;;;;;;8262990;28;20038;-47
2021/06/27 01:07:58;;;;;;;3.92;2.80;;;25.30;42.30;;;;;;8262674;28;20036;-47
2021/06/27 01:11:59;;;;;;;4.50;3.50;;;25.30;42.30;;;;;;8267521;28;20483;-48
2021/06/27 01:16:00;;;;;;;3.15;2.67;;;25.20;42.30;;;;;;8262218;28;20058;-48
2021/06/27 01:20:01;;;;;;;3.63;3.10;;;25.20;42.30;;;;;;8262560;28;20046;-48
2021/06/27 01:24:03;;;;;;;2.88;2.47;;;25.20;42.30;;;;;;8262512;28;20046;-47
2021/06/27 01:28:05;;;;;;;3.47;2.85;;;25.20;42.30;;;;;;8266155;28;20126;-48
2021/06/27 01:32:10;;;;;;;4.53;3.00;;;25.20;42.30;;;;;;8262352;28;20042;-48
2021/06/27 01:36:10;;;;;;;4.40;2.70;;;25.20;42.30;;;;;;8262051;28;20047;-48
2021/06/27 01:40:14;;;;;;;3.47;2.60;;;25.20;42.30;;;;;;8261533;28;20034;-48
2021/06/27 01:44:15;;;;;;;4.32;2.78;;;25.20;42.30;;;;;;8262018;28;20034;-48
2021/06/27 01:48:16;;;;;;;2.78;2.58;;;25.20;42.30;;;;;;8266279;28;20085;-47
2021/06/27 01:52:17;;;;;;;;;;;25.20;42.30;;;;;;8261614;28;20038;-49
2021/06/27 01:56:17;;;;;;;3.93;3.10;;;25.20;42.30;;;;;;8261601;28;20370;-48
2021/06/27 02:00:19;;;;;;;3.45;2.90;;;25.10;42.30;;;;;;8261416;28;20051;-49
2021/06/27 02:04:19;;;;;;;3.10;2.80;;;25.20;42.30;;;;;;8265859;28;20051;-50
2021/06/27 02:08:20;;;;;;;4.60;2.67;;;25.10;42.30;;;;;;8261445;28;20046;-47
2021/06/27 02:12:20;;;;;;;3.05;2.65;;;25.10;42.30;;;;;;8261483;28;20160;-52
2021/06/27 02:16:21;;;;;;;3.00;2.67;;;25.10;42.30;;;;;;8260426;28;20432;-49
2021/06/27 02:20:25;;;;;;;3.63;2.60;;;25.10;42.30;;;;;;8262981;28;20440;-48
2021/06/27 02:24:26;;;;;;;3.25;2.75;;;25.10;42.30;;;;;;8264161;28;20035;-48
2021/06/27 02:28:28;;;;;;;4.28;2.83;;;25.10;42.30;;;;;;8260417;28;20031;-46
2021/06/27 02:32:28;;;;;;;;;;;25.10;42.40;;;;;;8261268;28;20042;-48
2021/06/27 02:36:29;;;;;;;2.70;2.50;;;25.10;42.40;;;;;;8260882;28;19918;-48
2021/06/27 02:40:29;;;;;;;4.15;3.30;;;25.10;42.40;;;;;;8264968;28;20035;-48
2021/06/27 02:44:30;;;;;;;2.53;2.33;;;25.00;42.40;;;;;;8260684;28;20054;-50
2021/06/27 02:48:31;;;;;;;3.67;2.58;;;25.00;42.30;;;;;;8260939;28;20169;-47
2021/06/27 02:52:32;;;;;;;3.58;3.08;;;25.00;42.30;;;;;;8260189;28;20552;-48
2021/06/27 02:56:32;;;;;;;;;;;25.00;42.40;;;;;;8265692;28;20098;-47
2021/06/27 03:00:33;;;;;;;3.63;2.80;;;25.00;42.40;;;;;;8260864;28;19921;-46
2021/06/27 03:04:34;;;;;;;3.83;3.38;;;25.00;42.40;;;;;;8260533;28;20030;-51
2021/06/27 03:08:35;;;;;;;3.08;2.67;;;25.00;42.40;;;;;;8260629;28;20403;-49
2021/06/27 03:12:35;;;;;;;3.10;2.50;;;25.00;42.40;;;;;;8260484;28;20047;-48
2021/06/27 03:16:36;;;;;;;3.57;2.93;;;25.00;42.40;;;;;;8264220;28;20057;-47
2021/06/27 03:20:36;;;;;;;3.20;2.90;;;25.00;42.40;;;;;;8260021;28;20273;-49
2021/06/27 03:24:37;;;;;;;3.72;2.97;;;25.00;42.40;;;;;;8260000;28;20034;-49
2021/06/27 03:28:38;;;;;;;3.67;2.88;;;25.00;42.40;;;;;;8261145;28;20030;-48
2021/06/27 03:32:39;;;;;;;2.90;2.60;;;25.00;42.40;;;;;;8270436;28;20026;-48
2021/06/27 03:36:40;;;;;;;2.95;2.42;;;24.90;42.40;;;;;;8265867;28;20051;-49
2021/06/27 03:40:42;;;;;;;4.25;3.00;;;24.90;42.90;;;;;;8265607;28;20026;-48
2021/06/27 03:44:42;;;;;;;2.88;2.58;;;24.90;42.40;;;;;;8265715;28;20396;-48
2021/06/27 03:48:43;;;;;;;3.55;2.83;;;25.00;42.40;;;;;;8269750;28;20038;-47
2021/06/27 03:52:45;;;;;;;3.05;2.75;;;24.90;42.40;;;;;;8265271;28;20448;-48
2021/06/27 03:56:46;;;;;;;2.80;2.35;;;24.90;42.40;;;;;;8265049;28;20129;-47
2021/06/27 04:00:47;;;;;;;3.55;2.80;;;24.90;42.40;;;;;;8264866;28;20050;-48
2021/06/27 04:04:47;;;;;;;3.95;3.05;;;24.90;42.40;;;;;;8264873;28;22818;-48
2021/06/27 04:08:48;;;;;;;3.22;2.92;;;24.90;42.50;;;;;;8269529;28;20045;-48
2021/06/27 04:12:48;;;;;;;3.22;2.50;;;24.80;42.40;;;;;;8264767;28;20492;-48
2021/06/27 04:16:49;;;;;;;2.53;2.30;;;24.90;42.50;;;;;;8264166;28;20411;-48
2021/06/27 04:20:49;;;;;;;3.72;2.67;;;24.90;42.50;;;;;;8264628;28;20039;-48
2021/06/27 04:24:50;;;;;;;3.05;2.78;;;24.80;42.40;;;;;;8268795;28;20054;-47
2021/06/27 04:28:50;;;;;;;3.30;2.65;;;24.90;42.50;;;;;;8263732;28;20089;-47
2021/06/27 04:32:51;;;;;;;3.25;2.80;;;24.80;42.40;;;;;;8264173;28;20038;-46
2021/06/27 04:36:52;;;;;;;2.75;2.53;;;24.80;42.50;;;;;;8263835;28;20077;-46
2021/06/27 04:40:53;;;;;;;3.33;2.60;;;24.80;42.50;;;;;;8263615;28;20034;-48
2021/06/27 04:44:53;;;;;;;3.50;3.00;;;24.80;42.50;;;;;;8236059;28;20031;-47
2021/06/27 04:48:54;;;;;;;2.63;2.43;;;24.80;42.40;;;;;;8253556;28;20038;-47
2021/06/27 04:52:55;;;;;;;3.38;2.88;;;24.80;42.40;;;;;;8263560;28;20274;-46
2021/06/27 04:56:55;;;;;;;3.45;2.75;;;24.80;42.40;;;;;;8263327;28;20042;-47
2021/06/27 05:00:56;;;;;;;2.90;2.60;;;24.80;42.50;;;;;;8267233;28;20031;-48
2021/06/27 05:04:56;;;;;;;3.13;2.83;;;24.80;42.50;;;;;;8263752;28;20065;-48
2021/06/27 05:08:57;;;;;;;3.90;2.90;;;24.80;42.50;;;;;;8263380;28;20523;-51
2021/06/27 05:12:57;;;;;;;2.83;2.22;;;24.80;42.50;;;;;;8262321;28;20022;-50
2021/06/27 05:16:58;;;;;;;2.97;2.63;;;24.80;42.50;;;;;;8267158;28;20054;-51
2021/06/27 05:20:59;;;;;;;3.35;2.55;;;24.80;42.50;;;;;;8261862;28;20121;-47
2021/06/27 05:24:59;;;;;;;3.22;2.85;;;24.80;42.40;;;;;;8262016;28;20054;-47
2021/06/27 05:29:00;;;;;;;3.67;3.20;;;24.80;42.30;;;;;;8262562;28;20041;-47
2021/06/27 05:33:01;;;;;;;5.25;2.65;;;24.90;42.20;;;;;;8262465;28;20038;-48
2021/06/27 05:37:02;;;;;;;2.95;2.63;;;25.10;41.90;;;;;;8265966;28;20057;-48
2021/06/27 05:41:03;;;;;;;3.97;2.50;;;25.20;41.60;;;;;;8238771;28;20512;-46
2021/06/27 05:45:05;;;;;;;3.72;2.83;;;25.40;41.50;;;;;;8245332;28;20073;-46
2021/06/27 05:49:06;;;;;;;3.00;2.70;;;25.40;41.30;;;;;;8261320;28;20073;-47
2021/06/27 05:53:06;;;;;;;3.42;2.65;;;25.40;41.20;;;;;;8265505;28;20035;-46
2021/06/27 05:57:07;;;;;;;3.78;3.10;;;25.40;41.20;;;;;;8261865;28;20058;-46
2021/06/27 06:01:08;;;;;;;;;;;25.40;41.20;;;;;;8261726;28;20031;-47
2021/06/27 06:05:09;;;;;;;3.50;2.90;;;25.40;41.40;;;;;;8261279;28;20398;-47
2021/06/27 06:09:09;;;;;;;;;;;25.30;41.40;;;;;;8266565;28;20035;-47
2021/06/27 06:13:10;;;;;;;3.10;2.80;;;25.30;41.50;;;;;;8260863;28;19913;-48
2021/06/27 06:17:10;;;;;;;;;;;25.20;41.60;;;;;;8261438;28;20057;-47
2021/06/27 06:21:13;;;;;;;3.53;3.20;;;25.20;41.60;;;;;;8261011;28;19928;-47
2021/06/27 06:25:13;;;;;;;3.25;2.83;;;25.20;41.80;;;;;;8260747;28;20038;-47
2021/06/27 06:29:14;;;;;;;3.97;3.10;;;25.10;41.80;;;;;;8265600;28;20023;-47
2021/06/27 06:33:14;;;;;;;2.90;2.60;;;25.10;41.90;;;;;;8261011;28;20045;-47
2021/06/27 06:37:15;;;;;;;3.83;3.03;;;25.00;42.00;;;;;;8259811;28;20042;-48
2021/06/27 06:41:19;;;;;;;3.30;2.75;;;25.00;42.00;;;;;;8260789;28;20403;-47
2021/06/27 06:45:19;;;;;;;3.47;2.80;;;25.00;42.00;;;;;;8265293;28;20085;-47
2021/06/27 06:49:20;;;;;;;3.67;3.03;;;25.00;42.10;;;;;;8259936;28;20053;-46
2021/06/27 06:53:21;;;;;;;3.28;2.95;;;25.00;42.20;;;;;;8260835;28;20042;-48
2021/06/27 06:57:22;;;;;;;3.53;3.20;;;25.00;42.20;;;;;;8260285;28;20510;-47
2021/06/27 07:01:22;;;;;;;3.42;2.88;;;25.00;42.20;;;;;;8260130;28;20030;-48
2021/06/27 07:05:23;;;;;;;3.20;2.58;;;24.90;42.20;;;;;;8269380;28;20046;-51
2021/06/27 07:09:23;;;;;;;4.55;2.35;;;24.90;42.30;;;;;;8267196;28;20038;-47
2021/06/27 07:13:24;;;;;;;3.45;3.00;;;24.90;42.30;;;;;;8266340;28;20589;-50
2021/06/27 07:17:25;;;;;;;3.03;2.80;;;24.90;42.30;;;;;;8266600;28;20038;-48
2021/06/27 07:21:27;;;;;;;3.67;3.13;;;24.90;42.30;;;;;;8270897;28;20042;-48
2021/06/27 07:25:28;;;;;;;3.10;2.65;;;24.90;42.40;;;;;;8266094;28;20399;-49
2021/06/27 07:29:28;;;;;;;2.83;2.63;;;24.80;42.40;;;;;;8266177;28;20038;-48
2021/06/27 07:33:29;;;;;;;3.95;3.38;;;24.80;42.40;;;;;;8266306;28;20126;-48
2021/06/27 07:37:29;;;;;;;3.10;2.70;;;24.80;42.40;;;;;;8269873;28;20102;-48
2021/06/27 07:41:30;;;;;;;3.08;2.78;;;24.80;42.40;;;;;;8265970;28;20039;-47
2021/06/27 07:45:30;;;;;;;3.08;2.58;;;24.80;42.50;;;;;;8265632;28;20042;-47
2021/06/27 07:49:31;;;;;;;3.17;2.88;;;24.80;42.50;;;;;;8265277;28;20034;-46
2021/06/27 07:53:31;;;;;;;4.20;3.40;;;24.80;42.50;;;;;;8265462;28;20097;-50
2021/06/27 07:57:32;;;;;;;3.80;3.13;;;24.90;42.50;;;;;;8269748;28;20244;-48
2021/06/27 08:01:32;;;;;;;3.50;3.10;;;24.90;42.70;;;;;;8264859;28;20062;-48
2021/06/27 08:05:33;;;;;;;3.00;2.70;;;24.90;42.60;;;;;;8265038;28;20045;-47
2021/06/27 08:09:34;;;;;;;3.22;2.92;;;24.90;42.60;;;;;;8264954;28;20269;-47
2021/06/27 08:13:34;;;;;;;2.50;2.30;;;24.90;42.60;;;;;;8268684;28;20041;-47
2021/06/27 08:17:36;;;;;;;4.38;2.70;;;24.90;42.60;;;;;;8263394;28;20077;-47
2021/06/27 08:21:36;;;;;;;;;;;25.00;42.60;;;;;;8265082;28;20034;-47
2021/06/27 08:25:37;;;;;;;3.03;2.43;;;25.00;42.70;;;;;;8264081;28;19960;-49
2021/06/27 08:29:38;;;;;;;3.55;2.85;;;25.00;42.60;;;;;;8266659;28;20113;-47
2021/06/27 08:33:38;;;;;;;3.28;2.97;;;25.00;42.60;;;;;;8266663;28;20041;-47
2021/06/27 08:37:40;;;;;;;3.83;2.92;;;25.00;42.60;;;;;;8263668;28;20043;-47
2021/06/27 08:41:41;;;;;;;4.00;2.70;;;25.00;42.60;;;;;;8264380;28;20030;-48
2021/06/27 08:45:49;;;;;;;3.60;2.88;;;25.00;42.70;;;;;;8264051;28;20118;-47
2021/06/27 08:49:51;;;;;;;3.00;2.70;;;25.00;42.80;;;;;;8267647;28;20031;-49
2021/06/27 08:53:52;;;;;;;2.97;2.67;;;25.00;42.80;;;;;;8263360;28;20046;-49
2021/06/27 08:57:53;;;;;;;3.00;2.70;;;25.10;42.80;;;;;;8263253;28;20144;-48
2021/06/27 09:02:00;;;;;;;4.32;3.13;;;25.10;42.70;;;;;;8262871;28;20391;-47
2021/06/27 09:06:00;;;;;;;3.80;2.92;;;25.10;42.60;;;;;;8267932;28;20427;-47
2021/06/27 09:10:04;;;;;;;3.05;2.53;;;25.10;42.70;;;;;;8263620;28;20046;-48
2021/06/27 09:14:26;;;;;;;3.10;2.72;;;25.20;42.80;;;;;;8263313;28;20096;-48
2021/06/27 09:18:28;;;;;;;3.35;3.03;;;25.20;42.70;;;;;;8262745;28;20049;-48
2021/06/27 09:22:41;;;;;;;2.80;2.50;;;25.20;42.70;;;;;;8262225;28;20038;-49
2021/06/27 09:26:42;;;;;;;3.25;2.95;;;25.20;42.70;;;;;;8266845;28;20065;-47
2021/06/27 09:30:50;;;;;;;3.45;3.15;;;25.20;42.70;;;;;;8262586;28;20409;-49
2021/06/27 09:34:51;;;;;;;2.80;2.50;;;25.20;42.60;;;;;;8254517;28;20042;-47
2021/06/27 09:38:53;;;;;;;;;;;25.30;42.80;;;;;;8230490;28;20045;-47
2021/06/27 09:43:08;;;;;;;2.85;2.55;;;25.30;42.50;;;;;;8253966;28;19918;-48
2021/06/27 09:47:09;;;;;;;2.95;2.58;;;25.30;42.50;;;;;;8266523;28;20411;-48
2021/06/27 09:51:14;;;;;;;3.03;2.72;;;25.40;42.70;;;;;;8262537;28;20053;-49
2021/06/27 09:55:15;;;;;;;3.03;2.72;;;25.30;42.60;;;;;;8261871;28;20112;-49
2021/06/27 09:59:18;;;;;;;2.90;2.50;;;25.40;42.80;;;;;;8261923;28;20049;-47
2021/06/27 10:03:18;;;;;;;3.10;2.80;;;25.40;42.60;;;;;;8262975;28;20035;-50
2021/06/27 10:07:19;;;;;;;3.50;3.03;;;25.40;42.90;;;;;;8265055;28;20518;-49
2021/06/27 10:11:22;;;;;;;3.13;2.78;;;25.40;42.80;;;;;;8260166;28;20042;-48
2021/06/27 10:15:23;;;;;;;3.00;2.67;;;25.40;42.60;;;;;;8261364;28;20476;-48
2021/06/27 10:19:26;;;;;;;4.22;3.78;;;25.40;42.70;;;;;;8261166;28;20045;-46
2021/06/27 10:23:27;;;;;;;3.10;2.80;;;25.50;42.60;;;;;;8266738;28;20084;-46
2021/06/27 10:27:28;;;;;;;3.35;2.90;;;25.50;42.50;;;;;;8262144;28;20515;-46
2021/06/27 10:31:28;;;;;;;;;;;25.50;42.50;;;;;;8262027;28;20408;-47
2021/06/27 10:35:29;;;;;;;2.70;2.47;;;25.50;42.40;;;;;;8261376;28;19910;-47
2021/06/27 10:39:30;;;;;;;3.17;2.60;;;25.60;42.50;;;;;;8268645;28;20037;-48
2021/06/27 10:43:49;;;;;;;;;;;25.60;42.50;;;;;;8267566;28;20039;-49
2021/06/27 10:47:49;;;;;;;3.30;2.70;;;25.60;42.50;;;;;;8267433;28;19961;-47
2021/06/27 10:52:21;;;;;;;3.22;2.92;;;25.60;42.50;;;;;;8267332;28;20030;-51
2021/06/27 10:56:50;;;;;;;3.40;2.72;;;25.60;42.40;;;;;;8258650;28;20038;-47
2021/06/27 11:00:57;;;;;;;2.90;2.60;;;25.60;42.40;;;;;;8267033;28;20046;-48
2021/06/27 11:05:27;;;;;;;3.90;2.92;;;25.60;42.40;;;;;;8271536;28;20026;-47
2021/06/27 11:09:28;;;;;;;3.03;2.73;;;25.60;42.30;;;;;;8266985;28;20041;-47
2021/06/27 11:13:29;;;;;;;3.72;3.08;;;25.70;42.40;;;;;;8266274;28;20061;-46
2021/06/27 11:17:49;;;;;;;;;;;25.70;42.50;;;;;;8267308;28;20043;-49
2021/06/27 11:21:49;;;;;;;3.97;3.25;;;25.70;42.40;;;;;;8266355;28;19967;-48
2021/06/27 11:25:50;;;;;;;4.20;3.38;;;25.80;42.40;;;;;;8270508;28;20022;-50
2021/06/27 11:29:50;;;;;;;3.50;3.20;;;25.80;42.30;;;;;;8266224;28;20045;-48
2021/06/27 11:34:25;;;;;;;3.45;3.15;;;25.80;42.30;;;;;;8266186;28;20041;-47
2021/06/27 11:38:44;;;;;;;3.28;2.97;;;25.80;42.20;;;;;;8264695;28;20053;-47
2021/06/27 11:42:45;;;;;;;4.03;3.58;;;25.80;42.20;;;;;;8265660;28;20037;-47
2021/06/27 11:46:46;;;;;;;;;;;25.80;42.30;;;;;;8270082;28;20062;-46
2021/06/27 11:50:48;;;;;;;;;;;25.80;42.20;;;;;;8266120;28;20292;-49
2021/06/27 11:54:49;;;;;;;4.07;3.20;;;25.80;42.20;;;;;;8265481;28;19914;-47
2021/06/27 11:59:08;;;;;;;3.58;3.00;;;25.80;42.20;;;;;;8265024;28;20074;-48
2021/06/27 12:03:14;;;;;;;3.55;3.05;;;25.80;42.20;;;;;;8265473;28;20174;-51
2021/06/27 12:07:25;;;;;;;3.83;3.42;;;25.90;42.30;;;;;;8269219;28;20038;-47
2021/06/27 12:11:26;;;;;;;3.65;3.28;;;25.80;42.10;;;;;;8264781;28;20045;-47
2021/06/27 12:15:33;;;;;;;3.75;3.08;;;25.90;42.10;;;;;;8264352;28;20053;-48
2021/06/27 12:19:50;;;;;;;3.90;3.45;;;25.90;42.10;;;;;;8264231;28;20129;-48
2021/06/27 12:23:56;;;;;;;3.58;3.28;;;25.90;42.10;;;;;;8264436;28;20080;-48
2021/06/27 12:27:59;;;;;;;3.70;3.22;;;25.90;42.10;;;;;;8268441;28;20026;-49
2021/06/27 12:32:04;;;;;;;4.13;3.45;;;25.90;42.70;;;;;;8264323;28;20121;-47
2021/06/27 12:36:09;;;;;;;3.67;3.22;;;25.90;42.20;;;;;;8263801;28;20053;-51
2021/06/27 12:40:11;;;;;;;3.45;3.15;;;25.90;42.10;;;;;;8263772;28;20145;-50
2021/06/27 12:44:14;;;;;;;3.80;3.40;;;26.00;42.10;;;;;;8268376;28;20546;-49
2021/06/27 12:48:15;;;;;;;3.92;3.25;;;26.00;42.10;;;;;;8263761;28;20035;-49
2021/06/27 12:52:16;;;;;;;3.17;2.88;;;26.00;42.00;;;;;;8263466;28;20109;-48
2021/06/27 12:56:18;;;;;;;3.63;3.25;;;26.10;42.00;;;;;;8263677;28;20523;-47
2021/06/27 13:00:18;;;;;;;4.00;3.58;;;26.10;42.00;;;;;;8261912;28;20019;-50
2021/06/27 13:04:45;;;;;;;3.83;3.28;;;26.10;41.90;;;;;;8266883;28;20476;-47
2021/06/27 13:08:46;;;;;;;3.88;3.25;;;26.10;41.90;;;;;;8254648;28;20026;-49
2021/06/27 13:12:46;;;;;;;3.92;3.22;;;26.10;41.90;;;;;;8263183;28;20072;-48
2021/06/27 13:17:00;;;;;;;;;;;26.10;41.90;;;;;;8262728;28;20134;-49
2021/06/27 13:21:00;;;;;;;3.92;3.30;;;26.10;41.90;;;;;;8262737;28;19944;-46
2021/06/27 13:25:07;;;;;;;3.65;3.05;;;26.10;41.80;;;;;;8266498;28;20038;-48
2021/06/27 13:29:19;;;;;;;3.17;2.85;;;26.20;41.90;;;;;;8262321;28;20042;-49
2021/06/27 13:33:21;;;;;;;3.15;2.85;;;26.20;41.90;;;;;;8262353;28;20093;-49
2021/06/27 13:37:21;;;;;;;3.88;3.10;;;26.20;41.90;;;;;;8261602;28;20073;-51
2021/06/27 13:41:27;;;;;;;3.15;2.78;;;26.20;41.90;;;;;;8266486;28;20092;-48
2021/06/27 13:45:28;;;;;;;3.90;3.13;;;26.20;41.90;;;;;;8262193;28;20034;-47
2021/06/27 13:49:28;;;;;;;3.90;3.20;;;26.20;41.90;;;;;;8261543;28;20061;-46
2021/06/27 13:53:29;;;;;;;;;;;26.20;41.90;;;;;;8262258;28;20027;-46
2021/06/27 13:57:30;;;;;;;3.50;2.90;;;26.20;41.90;;;;;;8261788;28;20375;-46
2021/06/27 14:01:32;;;;;;;3.22;2.75;;;26.20;41.90;;;;;;8265498;28;20570;-46
2021/06/27 14:05:33;;;;;;;3.67;2.97;;;26.20;41.90;;;;;;8261874;28;20045;-47
2021/06/27 14:09:34;;;;;;;3.33;2.90;;;26.20;41.90;;;;;;8261570;28;20445;-46
2021/06/27 14:13:36;;;;;;;3.63;3.03;;;26.20;41.90;;;;;;8259950;28;20487;-48
2021/06/27 14:17:37;;;;;;;3.33;3.03;;;26.30;41.90;;;;;;8265930;28;20525;-47
2021/06/27 14:21:38;;;;;;;;;;;26.30;41.80;;;;;;8261709;28;20045;-47
2021/06/27 14:25:39;;;;;;;3.70;3.30;;;26.30;41.80;;;;;;8260666;28;19968;-47
2021/06/27 14:29:39;;;;;;;;;;;26.40;41.80;;;;;;8261653;28;20290;-48
2021/06/27 14:33:40;;;;;;;4.47;3.27;;;26.40;41.80;;;;;;8265476;28;20264;-47
2021/06/27 14:37:41;;;;;;;;;;;26.40;41.80;;;;;;8262035;28;20114;-47
2021/06/27 14:41:41;;;;;;;2.87;2.50;;;26.40;41.80;;;;;;8260732;28;20414;-47
2021/06/27 14:45:42;;;;;;;3.92;3.10;;;26.40;41.70;;;;;;8249182;28;20065;-46
2021/06/27 14:49:42;;;;;;;;;;;26.40;41.70;;;;;;8232067;28;20116;-47
2021/06/27 14:53:44;;;;;;;3.33;2.80;;;26.40;41.70;;;;;;8265240;28;19913;-49
2021/06/27 14:57:44;;;;;;;3.42;2.95;;;26.40;42.30;;;;;;8260846;28;20050;-48
2021/06/27 15:01:45;;;;;;;;;;;26.40;41.70;;;;;;8275528;28;20046;-48
2021/06/27 15:05:45;;;;;;;4.33;3.40;;;26.50;41.80;;;;;;8260508;28;19921;-48
2021/06/27 15:09:45;;;;;;;;;;;26.50;41.80;;;;;;8265309;28;20065;-47
2021/06/27 15:13:50;;;;;;;3.97;3.20;;;26.50;41.70;;;;;;8260303;28;19913;-47
2021/06/27 15:17:51;;;;;;;3.58;3.13;;;26.50;41.80;;;;;;8260660;28;20042;-48
2021/06/27 15:21:51;;;;;;;;;;;26.50;41.70;;;;;;8260888;28;20066;-48
2021/06/27 15:25:52;;;;;;;3.20;2.90;;;26.50;41.70;;;;;;8263129;28;19933;-48
2021/06/27 15:29:52;;;;;;;;;;;26.50;41.70;;;;;;8271109;28;20463;-48
2021/06/27 15:33:53;;;;;;;4.30;3.33;;;26.50;41.70;;;;;;8266009;28;20287;-48
2021/06/27 15:37:55;;;;;;;;;;;26.50;41.70;;;;;;8265593;28;20042;-50
2021/06/27 15:41:56;;;;;;;3.20;2.90;;;26.50;41.60;;;;;;8266418;28;20275;-48
2021/06/27 15:45:56;;;;;;;3.63;3.03;;;26.50;41.60;;;;;;8269939;28;20045;-48
2021/06/27 15:49:57;;;;;;;;;;;26.60;41.70;;;;;;8266262;28;20514;-47
2021/06/27 15:53:58;;;;;;;3.33;2.73;;;26.60;41.70;;;;;;8265331;28;20328;-48
2021/06/27 15:57:59;;;;;;;3.58;3.20;;;26.60;41.70;;;;;;8264867;28;20042;-48
2021/06/27 16:02:01;;;;;;;;;;;26.60;41.70;;;;;;8270212;28;20030;-48
2021/06/27 16:06:01;;;;;;;3.10;2.80;;;26.60;41.60;;;;;;8265346;28;19921;-48
2021/06/27 16:10:02;;;;;;;;;;;26.60;41.60;;;;;;8264871;28;20078;-48
2021/06/27 16:14:03;;;;;;;3.53;3.13;;;26.60;41.60;;;;;;8265089;28;19920;-48
2021/06/27 16:18:03;;;;;;;;;;;26.60;41.60;;;;;;8265182;28;20045;-48
2021/06/27 16:22:04;;;;;;;3.63;3.23;;;26.60;41.60;;;;;;8268719;28;19992;-48
2021/06/27 16:26:05;;;;;;;;;;;26.60;41.70;;;;;;8264851;28;20034;-48
2021/06/27 16:30:08;;;;;;;3.95;3.17;;;26.60;41.60;;;;;;8249016;28;19910;-48
2021/06/27 16:34:09;;;;;;;3.38;3.08;;;26.60;41.70;;;;;;8238262;28;20073;-48
2021/06/27 16:38:09;;;;;;;;;;;26.60;41.70;;;;;;8267460;28;20065;-49
2021/06/27 16:42:09;;;;;;;3.63;3.20;;;26.60;41.70;;;;;;8264250;28;19920;-48
2021/06/27 16:46:10;;;;;;;;;;;26.60;41.70;;;;;;8263677;28;20034;-48
2021/06/27 16:50:12;;;;;;;3.00;2.80;;;26.60;41.70;;;;;;8253521;28;20008;-48
2021/06/27 16:54:12;;;;;;;3.25;2.70;;;26.60;41.70;;;;;;8231535;28;20040;-51
2021/06/27 16:58:13;;;;;;;;;;;26.60;41.80;;;;;;8203606;28;20043;-48
2021/06/27 17:02:13;;;;;;;3.20;2.90;;;26.60;41.80;;;;;;8232992;28;19917;-52
2021/06/27 17:06:14;;;;;;;;;;;26.60;41.80;;;;;;8264430;28;20042;-50
2021/06/27 17:10:16;;;;;;;3.37;2.77;;;26.60;41.80;;;;;;8262774;28;19940;-49
2021/06/27 17:14:17;;;;;;;3.20;2.80;;;26.60;41.80;;;;;;8267382;28;20432;-48
2021/06/27 17:18:18;;;;;;;3.55;3.10;;;26.60;41.80;;;;;;8263107;28;20140;-48
2021/06/27 17:22:18;;;;;;;;;;;26.60;41.80;;;;;;8263063;28;20034;-48
2021/06/27 17:26:19;;;;;;;4.47;3.27;;;26.60;41.90;;;;;;8262481;28;19960;-48
2021/06/27 17:30:20;;;;;;;;;;;26.60;41.90;;;;;;8267211;28;20503;-48
2021/06/27 17:34:22;;;;;;;2.93;2.63;;;26.60;41.90;;;;;;8262103;28;19940;-48
2021/06/27 17:38:22;;;;;;;3.30;2.60;;;26.60;41.90;;;;;;8262341;28;20120;-48
2021/06/27 17:42:23;;;;;;;;;;;26.60;42.30;;;;;;8262759;28;20038;-47
2021/06/27 17:46:23;;;;;;;3.47;2.70;;;26.60;42.10;;;;;;8261473;28;20479;-48
2021/06/27 17:50:24;;;;;;;;;;;26.60;42.10;;;;;;8267004;28;20565;-48
2021/06/27 17:54:25;;;;;;;3.30;2.87;;;26.60;42.00;;;;;;8261799;28;19997;-46
2021/06/27 17:58:25;;;;;;;;;;;26.60;42.30;;;;;;8261743;28;20053;-46
2021/06/27 18:02:26;;;;;;;3.50;3.03;;;26.60;42.50;;;;;;8261723;28;19968;-46
2021/06/27 18:06:26;;;;;;;;;;;26.50;42.90;;;;;;8266443;28;20113;-47
2021/06/27 18:10:27;;;;;;;4.43;3.30;;;26.60;42.90;;;;;;8261287;28;19942;-47
2021/06/27 18:14:27;;;;;;;;;;;26.50;44.20;;;;;;8261917;28;20038;-48
2021/06/27 18:18:28;;;;;;;3.60;3.30;;;26.50;43.20;;;;;;8261296;28;19922;-47
2021/06/27 18:22:29;;;;;;;;;;;26.50;44.90;;;;;;8265713;28;20038;-48
2021/06/27 18:26:30;;;;;;;4.78;3.38;;;26.40;44.10;;;;;;8260964;28;19921;-47
2021/06/27 18:30:30;;;;;;;;;;;26.40;44.70;;;;;;8261392;28;20030;-47
2021/06/27 18:34:31;;;;;;;3.13;2.80;;;26.40;44.70;;;;;;8260644;28;19922;-47
2021/06/27 18:38:32;;;;;;;;;;;26.40;44.90;;;;;;8259377;28;20034;-47
2021/06/27 18:42:32;;;;;;;3.57;3.00;;;26.50;44.80;;;;;;8265097;28;20337;-47
2021/06/27 18:46:33;;;;;;;;;;;26.40;44.30;;;;;;8260973;28;20031;-48
2021/06/27 18:50:38;;;;;;;3.63;3.10;;;26.40;44.70;;;;;;8260739;28;20044;-47
2021/06/27 18:54:39;;;;;;;3.17;2.88;;;26.40;44.50;;;;;;8261076;28;20022;-48
2021/06/27 18:58:40;;;;;;;;;;;26.40;44.70;;;;;;8264967;28;20404;-48
2021/06/27 19:02:41;;;;;;;;;;;26.40;44.40;;;;;;8267751;28;20013;-48
2021/06/27 19:06:42;;;;;;;3.20;2.90;;;26.40;43.70;;;;;;8266971;28;19914;-48
2021/06/27 19:10:42;;;;;;;;;;;26.40;43.50;;;;;;8281834;28;20498;-49
2021/06/27 19:14:43;;;;;;;2.93;2.67;;;26.40;43.60;;;;;;8266537;28;19954;-48
2021/06/27 19:18:43;;;;;;;;;;;26.40;43.50;;;;;;8271421;28;20053;-48
2021/06/27 19:22:44;;;;;;;3.77;2.90;;;26.40;43.50;;;;;;8265963;28;19961;-48
2021/06/27 19:26:45;;;;;;;;;;;26.40;43.50;;;;;;8266702;28;20480;-48
2021/06/27 19:30:46;;;;;;;4.40;3.20;;;26.40;43.60;;;;;;8266575;28;19914;-49
2021/06/27 19:34:46;;;;;;;;;;;26.40;43.70;;;;;;8270453;28;20442;-49
2021/06/27 19:38:47;;;;;;;2.80;2.50;;;26.40;43.60;;;;;;8266252;28;19921;-46
2021/06/27 19:42:47;;;;;;;;;;;26.40;43.50;;;;;;8266100;28;20034;-47
2021/06/27 19:46:48;;;;;;;3.53;2.57;;;26.40;43.70;;;;;;8265317;28;20282;-48
2021/06/27 19:50:50;;;;;;;;;;;26.40;43.70;;;;;;8270582;28;20054;-48
2021/06/27 19:54:51;;;;;;;4.65;3.00;;;26.40;44.00;;;;;;8265606;28;20370;-48
2021/06/27 19:58:51;;;;;;;;;;;26.30;43.80;;;;;;8265033;28;20053;-47
2021/06/27 20:02:52;;;;;;;4.77;3.23;;;26.40;43.60;;;;;;8265659;28;19930;-47
2021/06/27 20:06:53;;;;;;;;;;;26.40;43.70;;;;;;8265066;28;20053;-48
2021/06/27 20:10:54;;;;;;;3.37;2.83;;;26.30;43.50;;;;;;8267817;28;19959;-48
2021/06/27 20:14:54;;;;;;;;;;;26.30;43.60;;;;;;8265560;28;20042;-48
2021/06/27 20:18:54;;;;;;;4.73;3.27;;;26.40;44.10;;;;;;8264703;28;20380;-47
2021/06/27 20:22:55;;;;;;;;;;;26.30;43.60;;;;;;8265078;28;20404;-48
2021/06/27 20:26:56;;;;;;;3.43;2.80;;;26.30;43.40;;;;;;8268895;28;19957;-47
2021/06/27 20:30:57;;;;;;;;;;;26.30;43.30;;;;;;8264391;28;20039;-48
2021/06/27 20:34:57;;;;;;;3.50;3.00;;;26.30;43.20;;;;;;8264159;28;19914;-48
2021/06/27 20:38:58;;;;;;;;;;;26.30;43.30;;;;;;8264780;28;20054;-47
2021/06/27 20:42:59;;;;;;;3.43;3.00;;;26.30;43.20;;;;;;8265835;28;20425;-48
2021/06/27 20:47:00;;;;;;;3.28;2.75;;;26.30;43.10;;;;;;8267181;28;20034;-48
2021/06/27 20:51:00;;;;;;;;;;;26.30;43.30;;;;;;8263817;28;20038;-49
2021/06/27 20:55:02;;;;;;;4.20;3.50;;;26.30;43.50;;;;;;8263221;28;20035;-48
2021/06/27 20:59:03;;;;;;;3.80;3.13;;;26.30;44.00;;;;;;8263350;28;20054;-47
2021/06/27 21:03:04;;;;;;;;;;;26.30;43.30;;;;;;8268197;28;20073;-47
2021/06/27 21:07:05;;;;;;;3.67;2.80;;;26.30;43.50;;;;;;8262736;28;19918;-49
2021/06/27 21:11:05;;;;;;;;;;;26.30;43.80;;;;;;8263433;28;20097;-48
2021/06/27 21:15:07;;;;;;;4.00;3.27;;;26.30;43.90;;;;;;8263052;28;20012;-47
2021/06/27 21:19:08;;;;;;;3.97;3.25;;;26.30;44.10;;;;;;8266777;28;20065;-48
2021/06/27 21:23:08;;;;;;;3.65;3.25;;;26.30;44.40;;;;;;8262363;28;20065;-48
2021/06/27 21:27:09;;;;;;;;;;;26.30;44.40;;;;;;8263280;28;20058;-48